Impacts TAF Board
For situational awareness. Not to be used for flight planning purposes.
IDs:

KMOB - Mobile Rgnl, AL, US

Issued at 1506 UTC 15 Oct 2018
Updated at 1509 UTC 15 Oct 2018
Potential Impact None Slight Moderate High
Time<<16/04Z 16/05Z 16/06Z 16/07Z 16/08Z 16/09Z 16/10Z 16/11Z 16/12Z 16/13Z 16/14Z 16/15Z 16/16Z>>
Type PRVL PRVL PRVL PRVL PRVL PRVL PRVL PRVL
VIS >6 >6 >6 >6 >6 6 6 6
CIG 35 35 35 35 35 4 4 4
Cover BKN BKN BKN BKN BKN OVC OVC OVC
FltCat VFR VFR VFR VFR VFR LIFR LIFR LIFR
WX VCSH VCSH VCSH VCSH VCSH BR BR BR
WDir 100 100 100 100 100 30 30 30
WSpd 2 2 2 2 2 3 3 3
WGst -- -- -- -- -- -- -- --
Raw TAF
KMOB 151506Z 1515/1612 17006KT P6SM BKN020
  FM151800 17006KT P6SM VCTS SCT030CB SCT250
  FM160300 10002KT P6SM VCSH BKN035 BKN200
  FM160900 03003KT 6SM BR OVC004


METAR Board
Radar Display
Forecast Discussion
For situational awareness. Not to be used for flight planning purposes.